sensor_id;sensor_type;location;lat;lon;timestamp;pressure;altitude;pressure_sealevel;temperature;humidity
49102;BME280;34913;47.520;19.186;2022-11-21T00:00:44;99358.00;;;0.02;93.82
49102;BME280;34913;47.520;19.186;2022-11-21T00:03:10;99339.97;;;-0.03;93.74
49102;BME280;34913;47.520;19.186;2022-11-21T00:05:42;99349.19;;;0.04;93.90
49102;BME280;34913;47.520;19.186;2022-11-21T00:08:12;99343.41;;;-0.20;92.97
49102;BME280;34913;47.520;19.186;2022-11-21T00:10:39;99350.09;;;-0.32;94.54
49102;BME280;34913;47.520;19.186;2022-11-21T00:13:06;99345.00;;;-0.35;96.17
49102;BME280;34913;47.520;19.186;2022-11-21T00:15:32;99342.94;;;-0.28;96.42
49102;BME280;34913;47.520;19.186;2022-11-21T00:18:01;99336.50;;;-0.21;96.05
49102;BME280;34913;47.520;19.186;2022-11-21T00:20:27;99330.81;;;-0.29;95.34
49102;BME280;34913;47.520;19.186;2022-11-21T00:22:53;99330.72;;;-0.45;95.10
49102;BME280;34913;47.520;19.186;2022-11-21T00:25:18;99316.94;;;-0.47;95.97
49102;BME280;34913;47.520;19.186;2022-11-21T00:27:44;99333.81;;;-0.37;96.56
49102;BME280;34913;47.520;19.186;2022-11-21T00:30:10;99329.72;;;-0.42;96.12
49102;BME280;34913;47.520;19.186;2022-11-21T00:32:36;99324.81;;;-0.48;96.80
49102;BME280;34913;47.520;19.186;2022-11-21T00:35:02;99314.31;;;-0.47;97.11
49102;BME280;34913;47.520;19.186;2022-11-21T00:37:28;99313.97;;;-0.39;96.33
49102;BME280;34913;47.520;19.186;2022-11-21T00:39:53;99311.75;;;-0.48;95.23
49102;BME280;34913;47.520;19.186;2022-11-21T00:42:19;99304.63;;;-0.62;95.77
49102;BME280;34913;47.520;19.186;2022-11-21T00:44:44;99304.63;;;-0.62;96.33
49102;BME280;34913;47.520;19.186;2022-11-21T00:47:10;99305.03;;;-0.52;96.36
49102;BME280;34913;47.520;19.186;2022-11-21T00:49:35;99300.81;;;-0.55;95.84
49102;BME280;34913;47.520;19.186;2022-11-21T00:52:01;99310.53;;;-0.59;95.66
49102;BME280;34913;47.520;19.186;2022-11-21T00:54:26;99308.53;;;-0.71;96.50
49102;BME280;34913;47.520;19.186;2022-11-21T00:56:51;99308.66;;;-0.74;97.12
49102;BME280;34913;47.520;19.186;2022-11-21T00:59:17;99313.66;;;-0.69;97.63
49102;BME280;34913;47.520;19.186;2022-11-21T01:01:43;99302.53;;;-0.73;96.93
49102;BME280;34913;47.520;19.186;2022-11-21T01:04:08;99309.78;;;-0.79;96.96
49102;BME280;34913;47.520;19.186;2022-11-21T01:06:36;99307.34;;;-0.82;97.97
49102;BME280;34913;47.520;19.186;2022-11-21T01:09:03;99311.13;;;-0.71;98.12
49102;BME280;34913;47.520;19.186;2022-11-21T01:11:28;99309.91;;;-0.64;97.89
49102;BME280;34913;47.520;19.186;2022-11-21T01:13:54;99309.84;;;-0.62;96.23
49102;BME280;34913;47.520;19.186;2022-11-21T01:16:22;99295.78;;;-0.77;95.90
49102;BME280;34913;47.520;19.186;2022-11-21T01:18:48;99289.09;;;-0.82;97.38
49102;BME280;34913;47.520;19.186;2022-11-21T01:21:15;99290.22;;;-0.69;97.59
49102;BME280;34913;47.520;19.186;2022-11-21T01:23:40;99292.38;;;-0.60;97.09
49102;BME280;34913;47.520;19.186;2022-11-21T01:26:09;99292.13;;;-0.56;95.66
49102;BME280;34913;47.520;19.186;2022-11-21T01:28:34;99286.13;;;-0.75;94.89
49102;BME280;34913;47.520;19.186;2022-11-21T01:31:20;99289.19;;;-0.84;96.02
49102;BME280;34913;47.520;19.186;2022-11-21T01:33:47;99290.56;;;-0.77;96.87
49102;BME280;34913;47.520;19.186;2022-11-21T01:36:14;99294.34;;;-0.65;97.38
49102;BME280;34913;47.520;19.186;2022-11-21T01:38:42;99280.75;;;-0.72;96.77
49102;BME280;34913;47.520;19.186;2022-11-21T01:41:10;99281.06;;;-0.78;97.30
49102;BME280;34913;47.520;19.186;2022-11-21T01:43:36;99277.63;;;-0.78;97.10
49102;BME280;34913;47.520;19.186;2022-11-21T01:48:41;99260.72;;;-0.89;98.00
49102;BME280;34913;47.520;19.186;2022-11-21T01:53:45;99261.94;;;-0.96;97.77
49102;BME280;34913;47.520;19.186;2022-11-21T01:56:13;99266.25;;;-0.95;98.74
49102;BME280;34913;47.520;19.186;2022-11-21T01:58:40;99276.72;;;-0.96;98.55
49102;BME280;34913;47.520;19.186;2022-11-21T02:01:07;99271.94;;;-1.05;98.69
49102;BME280;34913;47.520;19.186;2022-11-21T02:03:35;99266.38;;;-0.98;99.23
49102;BME280;34913;47.520;19.186;2022-11-21T02:06:02;99279.53;;;-0.82;99.56
49102;BME280;34913;47.520;19.186;2022-11-21T02:08:28;99275.69;;;-0.75;99.07
49102;BME280;34913;47.520;19.186;2022-11-21T02:11:06;99278.38;;;-0.76;96.89
49102;BME280;34913;47.520;19.186;2022-11-21T02:13:33;99278.22;;;-0.73;97.22
49102;BME280;34913;47.520;19.186;2022-11-21T02:15:59;99281.84;;;-0.76;96.41
49102;BME280;34913;47.520;19.186;2022-11-21T02:18:24;99277.00;;;-0.83;96.54
49102;BME280;34913;47.520;19.186;2022-11-21T02:20:52;99267.34;;;-0.81;97.48
49102;BME280;34913;47.520;19.186;2022-11-21T02:23:40;99272.34;;;-0.77;97.27
49102;BME280;34913;47.520;19.186;2022-11-21T02:26:09;99267.22;;;-0.78;97.15
49102;BME280;34913;47.520;19.186;2022-11-21T02:28:35;99262.38;;;-0.69;97.81
49102;BME280;34913;47.520;19.186;2022-11-21T02:31:00;99267.16;;;-0.60;97.70
49102;BME280;34913;47.520;19.186;2022-11-21T02:33:26;99263.06;;;-0.65;98.28
49102;BME280;34913;47.520;19.186;2022-11-21T02:35:58;99256.03;;;-0.63;99.33
49102;BME280;34913;47.520;19.186;2022-11-21T02:38:30;99253.75;;;-0.52;99.95
49102;BME280;34913;47.520;19.186;2022-11-21T02:41:05;99261.81;;;-0.39;100.00
49102;BME280;34913;47.520;19.186;2022-11-21T02:43:44;99254.00;;;-0.39;99.10
49102;BME280;34913;47.520;19.186;2022-11-21T02:46:11;99257.28;;;-0.36;98.84
49102;BME280;34913;47.520;19.186;2022-11-21T02:48:37;99259.59;;;-0.30;98.33
49102;BME280;34913;47.520;19.186;2022-11-21T02:51:03;99259.50;;;-0.28;98.60
49102;BME280;34913;47.520;19.186;2022-11-21T02:53:29;99266.41;;;-0.27;97.93
49102;BME280;34913;47.520;19.186;2022-11-21T02:55:54;99275.78;;;-0.23;97.55
49102;BME280;34913;47.520;19.186;2022-11-21T02:58:20;99266.22;;;-0.24;96.72
49102;BME280;34913;47.520;19.186;2022-11-21T03:00:45;99259.81;;;-0.34;96.34
49102;BME280;34913;47.520;19.186;2022-11-21T03:03:11;99267.44;;;-0.48;96.30
49102;BME280;34913;47.520;19.186;2022-11-21T03:05:38;99275.44;;;-0.51;96.97
49102;BME280;34913;47.520;19.186;2022-11-21T03:08:04;99266.31;;;-0.43;97.20
49102;BME280;34913;47.520;19.186;2022-11-21T03:10:30;99268.00;;;-0.42;97.26
49102;BME280;34913;47.520;19.186;2022-11-21T03:12:56;99269.75;;;-0.42;97.00
49102;BME280;34913;47.520;19.186;2022-11-21T03:15:26;99264.41;;;-0.39;97.21
49102;BME280;34913;47.520;19.186;2022-11-21T03:17:53;99260.09;;;-0.40;96.87
49102;BME280;34913;47.520;19.186;2022-11-21T03:20:18;99264.56;;;-0.42;96.15
49102;BME280;34913;47.520;19.186;2022-11-21T03:22:43;99256.28;;;-0.50;96.28
49102;BME280;34913;47.520;19.186;2022-11-21T03:25:09;99260.56;;;-0.49;96.33
49102;BME280;34913;47.520;19.186;2022-11-21T03:27:34;99260.47;;;-0.65;96.23
49102;BME280;34913;47.520;19.186;2022-11-21T03:29:59;99257.09;;;-0.67;96.51
49102;BME280;34913;47.520;19.186;2022-11-21T03:32:25;99242.00;;;-0.78;96.79
49102;BME280;34913;47.520;19.186;2022-11-21T03:34:50;99235.97;;;-0.97;96.83
49102;BME280;34913;47.520;19.186;2022-11-21T03:37:16;99240.97;;;-1.12;97.52
49102;BME280;34913;47.520;19.186;2022-11-21T03:39:41;99234.34;;;-1.19;98.78
49102;BME280;34913;47.520;19.186;2022-11-21T03:42:06;99230.31;;;-1.24;98.66
49102;BME280;34913;47.520;19.186;2022-11-21T03:44:32;99230.91;;;-1.19;99.16
49102;BME280;34913;47.520;19.186;2022-11-21T03:46:57;99225.78;;;-1.21;99.12
49102;BME280;34913;47.520;19.186;2022-11-21T03:49:23;99217.91;;;-1.19;99.47
49102;BME280;34913;47.520;19.186;2022-11-21T03:51:48;99227.06;;;-1.10;99.61
49102;BME280;34913;47.520;19.186;2022-11-21T03:54:14;99219.66;;;-1.01;99.03
49102;BME280;34913;47.520;19.186;2022-11-21T03:56:39;99223.84;;;-0.98;98.78
49102;BME280;34913;47.520;19.186;2022-11-21T03:59:05;99223.38;;;-1.06;98.78
49102;BME280;34913;47.520;19.186;2022-11-21T04:01:30;99227.81;;;-1.08;98.41
49102;BME280;34913;47.520;19.186;2022-11-21T04:03:56;99223.47;;;-1.08;98.78
49102;BME280;34913;47.520;19.186;2022-11-21T04:06:22;99227.13;;;-1.12;98.76
49102;BME280;34913;47.520;19.186;2022-11-21T04:08:48;99225.50;;;-1.15;99.00
49102;BME280;34913;47.520;19.186;2022-11-21T04:11:14;99224.47;;;-1.10;99.68
49102;BME280;34913;47.520;19.186;2022-11-21T04:13:40;99223.66;;;-1.13;99.16
49102;BME280;34913;47.520;19.186;2022-11-21T04:16:06;99222.69;;;-1.29;99.21
49102;BME280;34913;47.520;19.186;2022-11-21T04:18:33;99222.69;;;-1.29;100.00
49102;BME280;34913;47.520;19.186;2022-11-21T04:21:01;99217.78;;;-1.16;100.00
49102;BME280;34913;47.520;19.186;2022-11-21T04:23:27;99220.38;;;-1.16;99.49
49102;BME280;34913;47.520;19.186;2022-11-21T04:25:53;99218.63;;;-1.34;99.46
49102;BME280;34913;47.520;19.186;2022-11-21T04:28:18;99211.38;;;-1.47;100.00
49102;BME280;34913;47.520;19.186;2022-11-21T04:30:44;99206.75;;;-1.40;100.00
49102;BME280;34913;47.520;19.186;2022-11-21T04:33:13;99193.53;;;-1.54;100.00
49102;BME280;34913;47.520;19.186;2022-11-21T04:35:39;99198.56;;;-1.51;100.00
49102;BME280;34913;47.520;19.186;2022-11-21T04:38:05;99199.56;;;-1.54;100.00
49102;BME280;34913;47.520;19.186;2022-11-21T04:40:30;99193.22;;;-1.67;100.00
49102;BME280;34913;47.520;19.186;2022-11-21T04:42:56;99198.72;;;-1.54;100.00
49102;BME280;34913;47.520;19.186;2022-11-21T04:45:21;99198.22;;;-1.44;100.00
49102;BME280;34913;47.520;19.186;2022-11-21T04:47:46;99187.88;;;-1.26;100.00
49102;BME280;34913;47.520;19.186;2022-11-21T04:50:14;99189.69;;;-1.09;100.00
49102;BME280;34913;47.520;19.186;2022-11-21T04:52:41;99180.97;;;-1.27;99.45
49102;BME280;34913;47.520;19.186;2022-11-21T04:55:07;99184.09;;;-1.38;99.44
49102;BME280;34913;47.520;19.186;2022-11-21T04:57:33;99184.38;;;-1.44;99.47
49102;BME280;34913;47.520;19.186;2022-11-21T04:59:58;99186.47;;;-1.52;99.58
49102;BME280;34913;47.520;19.186;2022-11-21T05:02:24;99181.56;;;-1.58;99.89
49102;BME280;34913;47.520;19.186;2022-11-21T05:04:49;99173.75;;;-1.58;100.00
49102;BME280;34913;47.520;19.186;2022-11-21T05:07:15;99166.38;;;-1.49;100.00
49102;BME280;34913;47.520;19.186;2022-11-21T05:09:41;99160.81;;;-1.41;100.00
49102;BME280;34913;47.520;19.186;2022-11-21T05:12:08;99173.88;;;-1.24;100.00
49102;BME280;34913;47.520;19.186;2022-11-21T05:14:53;99178.06;;;-1.02;100.00
49102;BME280;34913;47.520;19.186;2022-11-21T05:17:18;99178.66;;;-0.97;100.00
49102;BME280;34913;47.520;19.186;2022-11-21T05:19:43;99179.13;;;-0.89;100.00
49102;BME280;34913;47.520;19.186;2022-11-21T05:22:09;99179.13;;;-0.89;100.00
49102;BME280;34913;47.520;19.186;2022-11-21T05:24:34;99176.75;;;-0.94;100.00
49102;BME280;34913;47.520;19.186;2022-11-21T05:27:00;99191.19;;;-0.87;100.00
49102;BME280;34913;47.520;19.186;2022-11-21T05:29:25;99179.50;;;-0.79;100.00
49102;BME280;34913;47.520;19.186;2022-11-21T05:31:51;99183.84;;;-0.78;99.87
49102;BME280;34913;47.520;19.186;2022-11-21T05:34:16;99169.09;;;-0.79;99.63
49102;BME280;34913;47.520;19.186;2022-11-21T05:36:41;99175.56;;;-0.87;99.50
49102;BME280;34913;47.520;19.186;2022-11-21T05:39:07;99167.84;;;-1.07;99.21
49102;BME280;34913;47.520;19.186;2022-11-21T05:41:32;99167.38;;;-1.15;99.96
49102;BME280;34913;47.520;19.186;2022-11-21T05:43:57;99169.03;;;-1.31;100.00
49102;BME280;34913;47.520;19.186;2022-11-21T05:46:24;99173.53;;;-1.35;100.00
49102;BME280;34913;47.520;19.186;2022-11-21T05:48:51;99161.78;;;-1.44;100.00
49102;BME280;34913;47.520;19.186;2022-11-21T05:51:18;99158.06;;;-1.38;100.00
49102;BME280;34913;47.520;19.186;2022-11-21T05:53:44;99158.38;;;-1.27;100.00
49102;BME280;34913;47.520;19.186;2022-11-21T05:56:12;99164.38;;;-1.25;100.00
49102;BME280;34913;47.520;19.186;2022-11-21T05:58:38;99169.72;;;-1.28;100.00
49102;BME280;34913;47.520;19.186;2022-11-21T06:01:04;99163.53;;;-1.25;100.00
49102;BME280;34913;47.520;19.186;2022-11-21T06:03:33;99154.94;;;-1.27;100.00
49102;BME280;34913;47.520;19.186;2022-11-21T06:06:15;99162.25;;;-1.35;100.00
49102;BME280;34913;47.520;19.186;2022-11-21T06:08:45;99164.88;;;-1.35;100.00
49102;BME280;34913;47.520;19.186;2022-11-21T06:11:12;99162.84;;;-1.48;100.00
49102;BME280;34913;47.520;19.186;2022-11-21T06:13:38;99164.69;;;-1.50;100.00
49102;BME280;34913;47.520;19.186;2022-11-21T06:16:15;99165.81;;;-1.55;100.00
49102;BME280;34913;47.520;19.186;2022-11-21T06:18:42;99173.00;;;-1.79;99.68
49102;BME280;34913;47.520;19.186;2022-11-21T06:21:15;99184.72;;;-1.89;100.00
49102;BME280;34913;47.520;19.186;2022-11-21T06:23:41;99184.94;;;-1.94;100.00
49102;BME280;34913;47.520;19.186;2022-11-21T06:26:11;99180.72;;;-1.97;100.00
49102;BME280;34913;47.520;19.186;2022-11-21T06:28:38;99173.81;;;-1.98;100.00
49102;BME280;34913;47.520;19.186;2022-11-21T06:31:05;99176.13;;;-1.91;100.00
49102;BME280;34913;47.520;19.186;2022-11-21T06:33:31;99186.28;;;-1.85;100.00
49102;BME280;34913;47.520;19.186;2022-11-21T06:35:57;99197.31;;;-1.80;100.00
49102;BME280;34913;47.520;19.186;2022-11-21T06:38:22;99194.66;;;-1.79;100.00
49102;BME280;34913;47.520;19.186;2022-11-21T06:40:48;99200.63;;;-1.77;100.00
49102;BME280;34913;47.520;19.186;2022-11-21T06:43:13;99197.09;;;-1.76;100.00
49102;BME280;34913;47.520;19.186;2022-11-21T06:45:39;99188.78;;;-1.84;100.00
49102;BME280;34913;47.520;19.186;2022-11-21T06:48:04;99197.75;;;-1.71;100.00
49102;BME280;34913;47.520;19.186;2022-11-21T06:50:30;99201.00;;;-1.65;100.00
49102;BME280;34913;47.520;19.186;2022-11-21T06:52:57;99212.78;;;-1.58;100.00
49102;BME280;34913;47.520;19.186;2022-11-21T06:55:23;99216.25;;;-1.58;100.00
49102;BME280;34913;47.520;19.186;2022-11-21T06:57:49;99215.38;;;-1.58;100.00
49102;BME280;34913;47.520;19.186;2022-11-21T07:00:15;99215.81;;;-1.67;100.00
49102;BME280;34913;47.520;19.186;2022-11-21T07:02:40;99226.13;;;-1.66;100.00
49102;BME280;34913;47.520;19.186;2022-11-21T07:05:06;99219.06;;;-1.62;100.00
49102;BME280;34913;47.520;19.186;2022-11-21T07:07:31;99230.38;;;-1.63;100.00
49102;BME280;34913;47.520;19.186;2022-11-21T07:09:57;99225.94;;;-1.61;100.00
49102;BME280;34913;47.520;19.186;2022-11-21T07:12:23;99232.63;;;-1.56;100.00
49102;BME280;34913;47.520;19.186;2022-11-21T07:15:08;99227.06;;;-1.48;100.00
49102;BME280;34913;47.520;19.186;2022-11-21T07:17:33;99230.59;;;-1.49;100.00
49102;BME280;34913;47.520;19.186;2022-11-21T07:19:59;99219.34;;;-1.50;100.00
49102;BME280;34913;47.520;19.186;2022-11-21T07:22:24;99219.47;;;-1.53;100.00
49102;BME280;34913;47.520;19.186;2022-11-21T07:24:50;99230.28;;;-1.43;100.00
49102;BME280;34913;47.520;19.186;2022-11-21T07:27:15;99222.13;;;-1.35;100.00
49102;BME280;34913;47.520;19.186;2022-11-21T07:29:40;99219.63;;;-1.18;100.00
49102;BME280;34913;47.520;19.186;2022-11-21T07:32:06;99228.88;;;-0.94;100.00
49102;BME280;34913;47.520;19.186;2022-11-21T07:34:31;99231.03;;;-0.85;100.00
49102;BME280;34913;47.520;19.186;2022-11-21T07:36:56;99231.31;;;-0.91;100.00
49102;BME280;34913;47.520;19.186;2022-11-21T07:39:22;99227.69;;;-0.88;100.00
49102;BME280;34913;47.520;19.186;2022-11-21T07:41:47;99223.03;;;-0.81;100.00
49102;BME280;34913;47.520;19.186;2022-11-21T07:44:12;99222.28;;;-0.83;100.00
49102;BME280;34913;47.520;19.186;2022-11-21T07:46:38;99229.19;;;-0.82;100.00
49102;BME280;34913;47.520;19.186;2022-11-21T07:49:03;99229.09;;;-0.81;100.00
49102;BME280;34913;47.520;19.186;2022-11-21T07:51:29;99223.66;;;-0.76;100.00
49102;BME280;34913;47.520;19.186;2022-11-21T07:53:54;99220.69;;;-0.69;100.00
49102;BME280;34913;47.520;19.186;2022-11-21T07:56:20;99229.09;;;-0.64;100.00
49102;BME280;34913;47.520;19.186;2022-11-21T07:58:45;99233.94;;;-0.56;100.00
49102;BME280;34913;47.520;19.186;2022-11-21T08:01:10;99234.50;;;-0.49;100.00
49102;BME280;34913;47.520;19.186;2022-11-21T08:03:36;99239.56;;;-0.46;100.00
49102;BME280;34913;47.520;19.186;2022-11-21T08:06:03;99249.38;;;-0.51;100.00
49102;BME280;34913;47.520;19.186;2022-11-21T08:08:28;99253.66;;;-0.68;100.00
49102;BME280;34913;47.520;19.186;2022-11-21T08:10:54;99251.72;;;-0.64;100.00
49102;BME280;34913;47.520;19.186;2022-11-21T08:13:19;99243.69;;;-0.42;100.00
49102;BME280;34913;47.520;19.186;2022-11-21T08:15:45;99248.84;;;-0.23;100.00
49102;BME280;34913;47.520;19.186;2022-11-21T08:18:12;99241.69;;;-0.20;100.00
49102;BME280;34913;47.520;19.186;2022-11-21T08:20:38;99248.97;;;-0.09;100.00
49102;BME280;34913;47.520;19.186;2022-11-21T08:23:04;99253.88;;;-0.03;100.00
49102;BME280;34913;47.520;19.186;2022-11-21T08:25:31;99263.16;;;0.03;100.00
49102;BME280;34913;47.520;19.186;2022-11-21T08:27:57;99261.22;;;0.06;100.00
49102;BME280;34913;47.520;19.186;2022-11-21T08:30:23;99255.88;;;-0.08;100.00
49102;BME280;34913;47.520;19.186;2022-11-21T08:32:48;99257.81;;;-0.12;100.00
49102;BME280;34913;47.520;19.186;2022-11-21T08:35:14;99250.72;;;0.08;100.00
49102;BME280;34913;47.520;19.186;2022-11-21T08:37:39;99259.19;;;0.28;100.00
49102;BME280;34913;47.520;19.186;2022-11-21T08:40:05;99265.38;;;0.43;100.00
49102;BME280;34913;47.520;19.186;2022-11-21T08:42:31;99262.88;;;0.42;100.00
49102;BME280;34913;47.520;19.186;2022-11-21T08:44:56;99277.78;;;0.40;100.00
49102;BME280;34913;47.520;19.186;2022-11-21T08:47:21;99269.31;;;0.35;100.00
49102;BME280;34913;47.520;19.186;2022-11-21T08:49:47;99264.91;;;0.19;100.00
49102;BME280;34913;47.520;19.186;2022-11-21T08:52:13;99277.28;;;0.32;100.00
49102;BME280;34913;47.520;19.186;2022-11-21T08:54:39;99281.22;;;0.23;100.00
49102;BME280;34913;47.520;19.186;2022-11-21T08:57:04;99283.41;;;0.32;100.00
49102;BME280;34913;47.520;19.186;2022-11-21T08:59:30;99284.63;;;0.58;100.00
49102;BME280;34913;47.520;19.186;2022-11-21T09:01:55;99278.81;;;0.69;100.00
49102;BME280;34913;47.520;19.186;2022-11-21T09:04:21;99281.84;;;0.61;100.00
49102;BME280;34913;47.520;19.186;2022-11-21T09:06:46;99272.00;;;0.66;100.00
49102;BME280;34913;47.520;19.186;2022-11-21T09:09:12;99280.09;;;0.77;100.00
49102;BME280;34913;47.520;19.186;2022-11-21T09:11:37;99275.63;;;0.64;100.00
49102;BME280;34913;47.520;19.186;2022-11-21T09:14:02;99272.66;;;0.70;100.00
49102;BME280;34913;47.520;19.186;2022-11-21T09:16:46;99274.44;;;0.69;100.00
49102;BME280;34913;47.520;19.186;2022-11-21T09:19:30;99277.88;;;0.54;100.00
49102;BME280;34913;47.520;19.186;2022-11-21T09:21:56;99260.56;;;0.36;100.00
49102;BME280;34913;47.520;19.186;2022-11-21T09:24:21;99269.00;;;0.41;100.00
49102;BME280;34913;47.520;19.186;2022-11-21T09:26:46;99254.00;;;0.44;100.00
49102;BME280;34913;47.520;19.186;2022-11-21T09:29:12;99254.38;;;0.54;100.00
49102;BME280;34913;47.520;19.186;2022-11-21T09:31:42;99247.56;;;0.67;100.00
49102;BME280;34913;47.520;19.186;2022-11-21T09:34:08;99258.88;;;0.83;100.00
49102;BME280;34913;47.520;19.186;2022-11-21T09:36:34;99258.13;;;0.81;100.00
49102;BME280;34913;47.520;19.186;2022-11-21T09:39:00;99261.13;;;0.74;100.00
49102;BME280;34913;47.520;19.186;2022-11-21T09:41:36;99264.25;;;0.80;100.00
49102;BME280;34913;47.520;19.186;2022-11-21T09:46:49;99245.38;;;0.75;100.00
49102;BME280;34913;47.520;19.186;2022-11-21T09:49:21;99260.13;;;0.76;100.00
49102;BME280;34913;47.520;19.186;2022-11-21T09:51:48;99256.44;;;0.80;100.00
49102;BME280;34913;47.520;19.186;2022-11-21T09:54:18;99258.13;;;0.81;100.00
49102;BME280;34913;47.520;19.186;2022-11-21T09:56:47;99265.78;;;0.84;100.00
49102;BME280;34913;47.520;19.186;2022-11-21T10:01:53;99256.34;;;0.98;100.00
49102;BME280;34913;47.520;19.186;2022-11-21T10:04:18;99268.25;;;1.03;100.00
49102;BME280;34913;47.520;19.186;2022-11-21T10:17:35;99259.97;;;1.11;100.00
49102;BME280;34913;47.520;19.186;2022-11-21T10:25:25;99256.47;;;1.26;100.00
49102;BME280;34913;47.520;19.186;2022-11-21T10:27:53;99246.03;;;1.10;100.00
49102;BME280;34913;47.520;19.186;2022-11-21T10:30:22;99237.59;;;1.21;100.00
49102;BME280;34913;47.520;19.186;2022-11-21T10:32:53;99228.75;;;1.24;100.00
49102;BME280;34913;47.520;19.186;2022-11-21T10:35:28;99225.53;;;1.34;100.00
49102;BME280;34913;47.520;19.186;2022-11-21T10:37:59;99218.50;;;1.51;100.00
49102;BME280;34913;47.520;19.186;2022-11-21T10:40:41;99209.31;;;1.44;100.00
49102;BME280;34913;47.520;19.186;2022-11-21T10:46:11;99214.94;;;1.52;100.00
49102;BME280;34913;47.520;19.186;2022-11-21T10:48:36;99218.84;;;1.45;100.00
49102;BME280;34913;47.520;19.186;2022-11-21T10:54:06;99215.59;;;1.55;100.00
49102;BME280;34913;47.520;19.186;2022-11-21T10:56:52;99212.94;;;1.71;100.00
49102;BME280;34913;47.520;19.186;2022-11-21T10:59:27;99206.44;;;1.92;100.00
49102;BME280;34913;47.520;19.186;2022-11-21T11:01:56;99210.38;;;2.00;100.00
49102;BME280;34913;47.520;19.186;2022-11-21T11:04:21;99204.94;;;2.03;100.00
49102;BME280;34913;47.520;19.186;2022-11-21T11:06:47;99211.47;;;2.10;100.00
49102;BME280;34913;47.520;19.186;2022-11-21T11:09:30;99221.59;;;2.16;100.00
49102;BME280;34913;47.520;19.186;2022-11-21T11:12:23;99212.50;;;2.36;100.00
49102;BME280;34913;47.520;19.186;2022-11-21T11:15:16;99208.94;;;2.51;100.00
49102;BME280;34913;47.520;19.186;2022-11-21T11:17:42;99206.50;;;2.62;100.00
49102;BME280;34913;47.520;19.186;2022-11-21T11:22:53;99193.53;;;2.88;97.73
49102;BME280;34913;47.520;19.186;2022-11-21T11:25:19;99192.31;;;2.93;98.41
49102;BME280;34913;47.520;19.186;2022-11-21T11:27:46;99185.47;;;2.91;97.82
49102;BME280;34913;47.520;19.186;2022-11-21T11:30:15;99188.09;;;2.91;98.33
49102;BME280;34913;47.520;19.186;2022-11-21T11:32:40;99187.31;;;3.03;98.27
49102;BME280;34913;47.520;19.186;2022-11-21T11:35:26;99186.84;;;3.23;97.93
49102;BME280;34913;47.520;19.186;2022-11-21T11:37:59;99180.06;;;3.33;96.51
49102;BME280;34913;47.520;19.186;2022-11-21T11:49:33;99163.66;;;3.57;96.50
49102;BME280;34913;47.520;19.186;2022-11-21T11:52:21;99153.03;;;3.71;96.03
49102;BME280;34913;47.520;19.186;2022-11-21T11:54:55;99149.59;;;3.83;95.20
49102;BME280;34913;47.520;19.186;2022-11-21T11:57:22;99157.25;;;3.74;95.92
49102;BME280;34913;47.520;19.186;2022-11-21T11:59:55;99144.44;;;3.69;96.81
49102;BME280;34913;47.520;19.186;2022-11-21T12:02:28;99133.09;;;3.81;95.43
49102;BME280;34913;47.520;19.186;2022-11-21T12:05:13;99137.41;;;3.95;93.48
49102;BME280;34913;47.520;19.186;2022-11-21T12:07:44;99135.28;;;4.13;92.84
49102;BME280;34913;47.520;19.186;2022-11-21T12:10:15;99131.78;;;4.25;92.66
49102;BME280;34913;47.520;19.186;2022-11-21T12:12:51;99123.25;;;4.34;93.58
49102;BME280;34913;47.520;19.186;2022-11-21T12:15:45;99129.41;;;5.07;100.00
49102;BME280;34913;47.520;19.186;2022-11-21T12:23:27;99115.81;;;4.89;91.55
49102;BME280;34913;47.520;19.186;2022-11-21T12:44:23;99106.25;;;4.88;91.51
49102;BME280;34913;47.520;19.186;2022-11-21T12:50:06;99106.03;;;4.91;91.78
49102;BME280;34913;47.520;19.186;2022-11-21T12:53:21;99105.00;;;4.81;92.57
49102;BME280;34913;47.520;19.186;2022-11-21T12:56:26;99094.97;;;4.74;92.64
49102;BME280;34913;47.520;19.186;2022-11-21T12:58:57;99090.06;;;4.81;92.51
49102;BME280;34913;47.520;19.186;2022-11-21T13:04:03;99099.97;;;5.01;91.66
49102;BME280;34913;47.520;19.186;2022-11-21T13:06:35;99097.16;;;5.16;91.07
49102;BME280;34913;47.520;19.186;2022-11-21T13:09:06;99104.25;;;5.26;90.87
49102;BME280;34913;47.520;19.186;2022-11-21T13:12:05;99107.84;;;5.37;89.82
49102;BME280;34913;47.520;19.186;2022-11-21T13:19:44;99096.63;;;5.35;89.37
49102;BME280;34913;47.520;19.186;2022-11-21T13:27:42;99110.13;;;5.30;88.41
49102;BME280;34913;47.520;19.186;2022-11-21T13:32:52;99101.28;;;5.31;89.27
49102;BME280;34913;47.520;19.186;2022-11-21T13:38:01;99102.47;;;5.27;90.51
49102;BME280;34913;47.520;19.186;2022-11-21T13:40:33;99110.19;;;5.17;91.58
49102;BME280;34913;47.520;19.186;2022-11-21T13:57:09;99104.97;;;5.28;91.15
49102;BME280;34913;47.520;19.186;2022-11-21T14:00:10;99111.06;;;5.29;89.59
49102;BME280;34913;47.520;19.186;2022-11-21T14:08:20;99109.91;;;4.98;90.30
49102;BME280;34913;47.520;19.186;2022-11-21T14:10:49;99113.09;;;4.90;90.50
49102;BME280;34913;47.520;19.186;2022-11-21T14:13:33;99104.69;;;4.85;90.69
49102;BME280;34913;47.520;19.186;2022-11-21T14:18:43;99100.00;;;4.78;91.24
49102;BME280;34913;47.520;19.186;2022-11-21T14:21:24;99100.50;;;4.83;89.91
49102;BME280;34913;47.520;19.186;2022-11-21T14:23:56;99098.53;;;4.73;90.28
49102;BME280;34913;47.520;19.186;2022-11-21T14:26:23;99108.44;;;4.70;90.73
49102;BME280;34913;47.520;19.186;2022-11-21T14:28:50;99098.81;;;4.58;91.56
49102;BME280;34913;47.520;19.186;2022-11-21T14:31:16;99103.00;;;4.60;91.48
49102;BME280;34913;47.520;19.186;2022-11-21T14:36:17;99106.63;;;4.46;93.06
49102;BME280;34913;47.520;19.186;2022-11-21T14:38:46;99103.19;;;4.33;94.05
49102;BME280;34913;47.520;19.186;2022-11-21T14:43:37;99111.47;;;4.40;94.51
49102;BME280;34913;47.520;19.186;2022-11-21T14:46:03;99106.44;;;4.37;94.64
49102;BME280;34913;47.520;19.186;2022-11-21T14:48:29;99116.72;;;4.40;94.75
49102;BME280;34913;47.520;19.186;2022-11-21T14:50:58;99121.09;;;4.28;95.22